• Join FlightAware (Why Join?)
  • Login
  • US Flag 
08:24AM EST


 

Airport Tracker/Info


-or-


 

Live Flight TrackerFlight Track Log ✈ ASQ6041 ✈ 14-Apr-2013 ✈ KDEN - KLNK

Flight Track Log - Related Links

Times and Time Zones

All times are in EDT time to prevent confusion due to time zone crossing. See the ASQ6041 flight status page for this flight to view local times or setup timezone preferences in your user account.

Time Position Orientation Groundspeed Altitude Reporting Facility
EDT Latitude Longitude Course Direction KTS MPH feet Rate Location/Type
12:36PM 39.8564 -104.7425 31° Northeast 179 206 6,900  Level Denver Center
12:37PM 39.9206 -104.6917 31° Northeast 278 320 9,400 2,100 Climbing Denver Center
12:38PM 39.9939 -104.6025 43° Northeast 338 389 11,300 1,920 Climbing Denver Center
12:39PM 40.0333 -104.5500 46° Northeast 372 428 12,500 2,100 Climbing Denver TRACON
12:40PM 40.0167 -104.4167 99° East 402 463 14,600 1,980 Climbing Denver TRACON
12:40PM 40.0036 -104.3358 102° East 404 465 15,600 1,920 Climbing Denver Center
12:41PM 39.9769 -104.1733 102° East 427 491 17,700 1,980 Climbing Denver Center
12:42PM 39.9972 -104.0169 80° East 443 510 19,800 1,860 Climbing Denver Center
12:43PM 40.0203 -103.8556 79° East 452 520 21,600 1,560 Climbing Denver Center
12:44PM 40.0456 -103.6892 79° East 442 509 23,100 1,440 Climbing Denver Center
12:45PM 40.0706 -103.5181 79° East 472 543 24,600 1,440 Climbing Denver Center
12:46PM 40.0964 -103.3431 79° East 485 558 26,100 1,440 Climbing Denver Center
12:47PM 40.1206 -103.1678 80° East 486 559 27,600 1,380 Climbing Denver Center
12:48PM 40.1461 -102.9931 79° East 486 559 29,000 660 Climbing Denver Center
12:50PM 40.1767 -102.7764 79° East 511 588 29,000  Level Denver Center
12:51PM 40.2028 -102.5903 80° East 533 613 29,000  Level Denver Center
12:52PM 40.2303 -102.4000 79° East 551 634 29,000  Level Denver Center
12:53PM 40.2594 -102.1792 80° East 553 636 29,000  Level Denver Center
12:54PM 40.2839 -101.9911 80° East 550 633 29,000  Level Denver Center
12:55PM 40.3111 -101.7719 81° East 547 629 29,000  Level Denver Center
12:56PM 40.3356 -101.5850 80° East 545 627 29,000  Level Denver Center
12:57PM 40.3642 -101.3686 80° East 542 624 29,000  Level Denver Center
12:58PM 40.3869 -101.1828 81° East 541 623 29,000  Level Denver Center
12:59PM 40.4139 -100.9683 81° East 537 618 29,000  Level Denver Center
01:00PM 40.4356 -100.7867 81° East 532 612 29,000  Level Denver Center
01:01PM 40.4606 -100.5775 81° East 526 605 29,000  Level Denver Center
01:02PM 40.4817 -100.3989 81° East 523 602 29,000  Level Denver Center
01:03PM 40.5058 -100.1917 81° East 519 597 29,000  Level Denver Center
01:04PM 40.5261 -100.0144 81° East 515 593 29,000  Level Denver Center
01:05PM 40.5497 -99.8114 81° East 510 587 29,000  Level Denver Center
01:06PM 40.5700 -99.6272 82° East 510 587 29,000 -240 Level Denver Center
01:07PM 40.5900 -99.4439 82° East 508 585 28,600 -960 Descending Denver Center
01:08PM 40.6097 -99.2600 82° East 509 586 27,100 -1,500 Descending Denver Center
01:09PM 40.6303 -99.0761 82° East 510 587 25,600 -1,500 Descending Denver Center
01:10PM 40.6522 -98.8625 82° East 502 578 23,800 -1,500 Descending Minneapolis Center
01:11PM 40.6703 -98.6911 82° East 485 558 22,300 -1,740 Descending Minneapolis Center
01:12PM 40.6894 -98.4911 83° East 467 537 20,300 -2,100 Descending Minneapolis Center
01:13PM 40.7056 -98.3297 82° East 453 521 18,100 -1,980 Descending Minneapolis Center
01:14PM 40.7203 -98.1781 83° East 429 494 16,300 -1,740 Descending Minneapolis Center
01:15PM 40.7350 -98.0325 82° East 411 473 14,600 -1,680 Descending Minneapolis Center
01:16PM 40.7489 -97.8894 83° East 398 458 12,900 -1,620 Descending Minneapolis Center
01:17PM 40.7614 -97.7500 83° East 388 447 11,300 -1,320 Descending Minneapolis Center
01:18PM 40.7464 -97.6594 102° East 382 440 11,000 -300 Descending Minneapolis Center
01:19PM 40.7747 -97.6117 52° Northeast 383 441 11,000 -120 Level Minneapolis Center
01:20PM 40.7911 -97.4822 80° East 365 420 10,900 -720 Descending Minneapolis Center
01:21PM 40.8186 -97.3553 74° East 327 376 9,600 -1,260 Descending Minneapolis Center
01:22PM 40.8433 -97.2461 73° East 314 361 8,400 -1,500 Descending Minneapolis Center
01:22PM 40.8481 -97.1358 87° East 299 344 6,800 -1,620 Descending Minneapolis Center
01:23PM 40.8658 -97.0461 75° East 272 313 5,500 -1,440 Descending Minneapolis Center
01:24PM 40.8861 -96.9586 73° East 244 281 4,100 -1,140 Descending Minneapolis Center
01:25PM 40.9008 -96.9533 15° North 261 300 4,100 -420 Level Minneapolis Center
01:25PM 40.9042 -96.8742 87° East 242 278 3,700 -420 Descending Minneapolis Center
01:26PM 40.9206 -96.8711 North 247 284 3,700 -1,140 Level Minneapolis Center
01:26PM 40.9097 -96.7911 100° East 226 260 2,600 -1,200 Descending Minneapolis Center
01:27PM 40.9161 -96.7719 66° East 231 266 2,500 -1,020 Descending Minneapolis Center
01:28PM 40.8658 -96.7569 167° South 145 167 1,500 -1,260 Descending Minneapolis Center
01:30PM 40.8500 -96.7500 66° East  Level FlightAware Approximate